sensor_id;sensor_type;location;lat;lon;timestamp;P1;durP1;ratioP1;P2;durP2;ratioP2
49147;SDS011;41980;45.550;12.070;2022-11-15T07:37:21;30.10;;;19.63;;
49147;SDS011;41980;45.550;12.070;2022-11-15T07:43:27;25.70;;;16.77;;
49147;SDS011;41980;45.550;12.070;2022-11-15T07:49:34;23.20;;;16.60;;
49147;SDS011;41980;45.550;12.070;2022-11-15T07:55:40;29.05;;;20.02;;
49147;SDS011;41980;45.550;12.070;2022-11-15T08:01:46;57.28;;;30.90;;
49147;SDS011;41980;45.550;12.070;2022-11-15T08:07:51;36.40;;;23.20;;
49147;SDS011;41980;45.550;12.070;2022-11-15T08:13:56;30.13;;;18.73;;
49147;SDS011;41980;45.550;12.070;2022-11-15T08:20:01;46.22;;;26.05;;
49147;SDS011;41980;45.550;12.070;2022-11-15T08:26:08;31.55;;;20.33;;
49147;SDS011;41980;45.550;12.070;2022-11-15T08:32:14;29.08;;;16.98;;
49147;SDS011;41980;45.550;12.070;2022-11-15T08:38:19;39.05;;;26.23;;
49147;SDS011;41980;45.550;12.070;2022-11-15T08:44:26;26.73;;;19.17;;
49147;SDS011;41980;45.550;12.070;2022-11-15T08:50:31;22.30;;;14.75;;
49147;SDS011;41980;45.550;12.070;2022-11-15T08:56:37;63.00;;;29.27;;
49147;SDS011;41980;45.550;12.070;2022-11-15T09:02:42;28.17;;;16.85;;
49147;SDS011;41980;45.550;12.070;2022-11-15T09:08:47;51.42;;;26.05;;
49147;SDS011;41980;45.550;12.070;2022-11-15T09:14:53;27.80;;;15.10;;
49147;SDS011;41980;45.550;12.070;2022-11-15T09:21:02;22.40;;;12.35;;
49147;SDS011;41980;45.550;12.070;2022-11-15T09:27:08;19.13;;;10.98;;
49147;SDS011;41980;45.550;12.070;2022-11-15T09:33:14;16.30;;;9.40;;
49147;SDS011;41980;45.550;12.070;2022-11-15T09:39:20;13.82;;;9.68;;
49147;SDS011;41980;45.550;12.070;2022-11-15T10:03:59;23.13;;;15.00;;
49147;SDS011;41980;45.550;12.070;2022-11-15T10:28:30;19.58;;;13.73;;
49147;SDS011;41980;45.550;12.070;2022-11-15T10:34:35;18.73;;;12.80;;
49147;SDS011;41980;45.550;12.070;2022-11-15T10:40:38;13.77;;;9.10;;
49147;SDS011;41980;45.550;12.070;2022-11-15T10:46:43;22.75;;;13.52;;
49147;SDS011;41980;45.550;12.070;2022-11-15T10:52:49;41.67;;;24.48;;
49147;SDS011;41980;45.550;12.070;2022-11-15T10:58:53;15.82;;;10.93;;
49147;SDS011;41980;45.550;12.070;2022-11-15T11:04:58;11.93;;;8.10;;
49147;SDS011;41980;45.550;12.070;2022-11-15T11:11:01;32.72;;;21.52;;
49147;SDS011;41980;45.550;12.070;2022-11-15T11:41:43;16.73;;;10.93;;
49147;SDS011;41980;45.550;12.070;2022-11-15T11:47:51;20.25;;;16.35;;
49147;SDS011;41980;45.550;12.070;2022-11-15T11:54:10;11.52;;;8.80;;
49147;SDS011;41980;45.550;12.070;2022-11-15T12:00:22;19.23;;;14.27;;
49147;SDS011;41980;45.550;12.070;2022-11-15T12:24:57;11.70;;;9.20;;
49147;SDS011;41980;45.550;12.070;2022-11-15T12:55:32;14.27;;;10.90;;
49147;SDS011;41980;45.550;12.070;2022-11-15T13:13:43;20.13;;;15.73;;
49147;SDS011;41980;45.550;12.070;2022-11-15T13:19:46;15.60;;;11.27;;
49147;SDS011;41980;45.550;12.070;2022-11-15T13:31:59;12.13;;;8.45;;
49147;SDS011;41980;45.550;12.070;2022-11-15T13:38:03;10.73;;;7.57;;
49147;SDS011;41980;45.550;12.070;2022-11-15T13:44:17;12.57;;;9.18;;
49147;SDS011;41980;45.550;12.070;2022-11-15T13:50:25;13.75;;;9.52;;
49147;SDS011;41980;45.550;12.070;2022-11-15T13:56:32;11.70;;;8.40;;
49147;SDS011;41980;45.550;12.070;2022-11-15T14:02:35;15.40;;;10.60;;
49147;SDS011;41980;45.550;12.070;2022-11-15T14:08:39;17.35;;;12.45;;
49147;SDS011;41980;45.550;12.070;2022-11-15T14:20:47;13.75;;;9.80;;
49147;SDS011;41980;45.550;12.070;2022-11-15T14:26:49;13.10;;;9.60;;
49147;SDS011;41980;45.550;12.070;2022-11-15T14:32:52;11.00;;;8.27;;
49147;SDS011;41980;45.550;12.070;2022-11-15T14:38:55;9.10;;;6.65;;
49147;SDS011;41980;45.550;12.070;2022-11-15T14:44:57;10.48;;;6.85;;
49147;SDS011;41980;45.550;12.070;2022-11-15T14:50:59;14.98;;;11.70;;
49147;SDS011;41980;45.550;12.070;2022-11-15T14:57:02;12.80;;;9.15;;
49147;SDS011;41980;45.550;12.070;2022-11-15T15:03:04;11.65;;;8.23;;
49147;SDS011;41980;45.550;12.070;2022-11-15T15:09:07;12.27;;;8.05;;
49147;SDS011;41980;45.550;12.070;2022-11-15T15:27:24;14.82;;;11.13;;
49147;SDS011;41980;45.550;12.070;2022-11-15T15:33:26;10.00;;;7.40;;
49147;SDS011;41980;45.550;12.070;2022-11-15T15:39:28;13.75;;;9.55;;
49147;SDS011;41980;45.550;12.070;2022-11-15T15:45:31;9.95;;;7.28;;
49147;SDS011;41980;45.550;12.070;2022-11-15T15:51:34;11.40;;;7.30;;
49147;SDS011;41980;45.550;12.070;2022-11-15T15:57:36;14.32;;;9.85;;
49147;SDS011;41980;45.550;12.070;2022-11-15T16:03:38;15.68;;;11.65;;
49147;SDS011;41980;45.550;12.070;2022-11-15T16:09:40;14.30;;;10.80;;
49147;SDS011;41980;45.550;12.070;2022-11-15T16:15:46;21.75;;;15.23;;
49147;SDS011;41980;45.550;12.070;2022-11-15T16:21:53;16.15;;;11.65;;
49147;SDS011;41980;45.550;12.070;2022-11-15T16:27:55;20.40;;;13.80;;
49147;SDS011;41980;45.550;12.070;2022-11-15T16:33:57;16.40;;;11.60;;
49147;SDS011;41980;45.550;12.070;2022-11-15T16:39:59;19.15;;;13.75;;
49147;SDS011;41980;45.550;12.070;2022-11-15T16:46:06;16.90;;;13.30;;
49147;SDS011;41980;45.550;12.070;2022-11-15T16:52:14;19.08;;;13.77;;
49147;SDS011;41980;45.550;12.070;2022-11-15T16:58:17;17.45;;;12.27;;
49147;SDS011;41980;45.550;12.070;2022-11-15T17:04:19;24.10;;;18.77;;
49147;SDS011;41980;45.550;12.070;2022-11-15T17:10:23;22.63;;;17.92;;
49147;SDS011;41980;45.550;12.070;2022-11-15T17:16:27;24.35;;;17.10;;
49147;SDS011;41980;45.550;12.070;2022-11-15T17:22:29;23.10;;;17.23;;
49147;SDS011;41980;45.550;12.070;2022-11-15T17:28:32;22.40;;;16.23;;
49147;SDS011;41980;45.550;12.070;2022-11-15T17:34:35;20.73;;;14.23;;
49147;SDS011;41980;45.550;12.070;2022-11-15T17:40:38;23.70;;;16.35;;
49147;SDS011;41980;45.550;12.070;2022-11-15T17:46:40;20.23;;;14.65;;
49147;SDS011;41980;45.550;12.070;2022-11-15T17:52:44;20.58;;;15.27;;
49147;SDS011;41980;45.550;12.070;2022-11-15T17:58:48;172.48;;;69.78;;
49147;SDS011;41980;45.550;12.070;2022-11-15T18:04:52;251.05;;;86.93;;
49147;SDS011;41980;45.550;12.070;2022-11-15T18:17:03;99.55;;;46.92;;
49147;SDS011;41980;45.550;12.070;2022-11-15T18:23:05;61.40;;;30.27;;
49147;SDS011;41980;45.550;12.070;2022-11-15T18:29:07;62.42;;;29.80;;
49147;SDS011;41980;45.550;12.070;2022-11-15T18:35:10;45.75;;;22.55;;
49147;SDS011;41980;45.550;12.070;2022-11-15T18:47:21;60.78;;;32.95;;
49147;SDS011;41980;45.550;12.070;2022-11-15T18:53:23;39.97;;;22.63;;
49147;SDS011;41980;45.550;12.070;2022-11-15T18:59:25;28.75;;;15.75;;
49147;SDS011;41980;45.550;12.070;2022-11-15T19:05:28;27.55;;;15.95;;
49147;SDS011;41980;45.550;12.070;2022-11-15T19:11:30;31.27;;;20.58;;
49147;SDS011;41980;45.550;12.070;2022-11-15T19:17:35;28.60;;;17.67;;
49147;SDS011;41980;45.550;12.070;2022-11-15T19:23:39;28.73;;;18.55;;
49147;SDS011;41980;45.550;12.070;2022-11-15T19:29:42;23.02;;;15.82;;
49147;SDS011;41980;45.550;12.070;2022-11-15T19:35:44;20.85;;;14.07;;
49147;SDS011;41980;45.550;12.070;2022-11-15T19:41:47;23.40;;;15.27;;
49147;SDS011;41980;45.550;12.070;2022-11-15T19:47:50;19.38;;;13.32;;
49147;SDS011;41980;45.550;12.070;2022-11-15T19:53:53;16.13;;;9.40;;
49147;SDS011;41980;45.550;12.070;2022-11-15T19:59:57;16.17;;;11.25;;
49147;SDS011;41980;45.550;12.070;2022-11-15T20:06:02;15.88;;;10.73;;
49147;SDS011;41980;45.550;12.070;2022-11-15T20:12:06;18.95;;;12.50;;
49147;SDS011;41980;45.550;12.070;2022-11-15T20:18:08;20.88;;;13.85;;
49147;SDS011;41980;45.550;12.070;2022-11-15T20:24:10;15.20;;;10.98;;
49147;SDS011;41980;45.550;12.070;2022-11-15T20:30:12;16.45;;;11.60;;
49147;SDS011;41980;45.550;12.070;2022-11-15T20:36:15;14.60;;;9.90;;
49147;SDS011;41980;45.550;12.070;2022-11-15T20:42:17;16.75;;;12.65;;
49147;SDS011;41980;45.550;12.070;2022-11-15T20:48:19;18.70;;;13.43;;
49147;SDS011;41980;45.550;12.070;2022-11-15T20:54:21;14.18;;;10.60;;
49147;SDS011;41980;45.550;12.070;2022-11-15T21:00:23;11.88;;;9.10;;
49147;SDS011;41980;45.550;12.070;2022-11-15T21:06:26;19.02;;;13.25;;
49147;SDS011;41980;45.550;12.070;2022-11-15T21:12:28;12.60;;;9.00;;
49147;SDS011;41980;45.550;12.070;2022-11-15T21:18:32;13.52;;;11.07;;
49147;SDS011;41980;45.550;12.070;2022-11-15T21:24:35;20.05;;;15.98;;
49147;SDS011;41980;45.550;12.070;2022-11-15T21:30:37;15.73;;;12.95;;
49147;SDS011;41980;45.550;12.070;2022-11-15T21:36:40;12.43;;;9.68;;
49147;SDS011;41980;45.550;12.070;2022-11-15T21:42:42;12.80;;;9.27;;
49147;SDS011;41980;45.550;12.070;2022-11-15T21:48:44;16.75;;;12.15;;
49147;SDS011;41980;45.550;12.070;2022-11-15T21:54:46;16.60;;;12.38;;
49147;SDS011;41980;45.550;12.070;2022-11-15T22:00:48;15.15;;;10.85;;
49147;SDS011;41980;45.550;12.070;2022-11-15T22:06:53;13.35;;;10.85;;
49147;SDS011;41980;45.550;12.070;2022-11-15T22:12:55;16.95;;;12.68;;
49147;SDS011;41980;45.550;12.070;2022-11-15T22:18:58;13.50;;;9.95;;
49147;SDS011;41980;45.550;12.070;2022-11-15T22:25:00;14.70;;;11.00;;
49147;SDS011;41980;45.550;12.070;2022-11-15T22:31:02;14.68;;;10.68;;
49147;SDS011;41980;45.550;12.070;2022-11-15T22:37:05;12.65;;;10.43;;
49147;SDS011;41980;45.550;12.070;2022-11-15T22:43:07;16.90;;;12.68;;
49147;SDS011;41980;45.550;12.070;2022-11-15T22:49:14;14.30;;;10.32;;
49147;SDS011;41980;45.550;12.070;2022-11-15T22:55:16;18.95;;;14.07;;
49147;SDS011;41980;45.550;12.070;2022-11-15T23:01:19;13.27;;;10.07;;
49147;SDS011;41980;45.550;12.070;2022-11-15T23:07:22;12.65;;;9.75;;
49147;SDS011;41980;45.550;12.070;2022-11-15T23:13:25;17.23;;;13.48;;
49147;SDS011;41980;45.550;12.070;2022-11-15T23:19:29;11.68;;;8.75;;
49147;SDS011;41980;45.550;12.070;2022-11-15T23:25:31;14.00;;;9.68;;
49147;SDS011;41980;45.550;12.070;2022-11-15T23:31:33;14.35;;;10.43;;
49147;SDS011;41980;45.550;12.070;2022-11-15T23:37:38;15.50;;;10.85;;
49147;SDS011;41980;45.550;12.070;2022-11-15T23:43:40;13.30;;;9.80;;
49147;SDS011;41980;45.550;12.070;2022-11-15T23:49:42;10.98;;;8.13;;
